Time;durP1;ratioP1;P1;durP2;ratioP2;P2;SDS_P1;SDS_P2;PMS_P1;PMS_P2;Temp;Humidity;BMP_temperature;BMP_pressure;BME280_temperature;BME280_humidity;BME280_pressure;Samples;Min_cycle;Max_cycle;Signal;HPM_P1;HPM_P2
2023/01/15 00:00:10;;;;;;;2.65;1.13;;;;;;;;;;5015205;28;20034;-82
2023/01/15 00:02:35;;;;;;;3.85;0.93;;;;;;;;;;4987396;28;20049;-82
2023/01/15 00:05:02;;;;;;;3.40;0.82;;;;;;;;;;5006692;28;20037;-82
2023/01/15 00:07:28;;;;;;;1.90;0.90;;;;;;;;;;5004681;28;20415;-82
2023/01/15 00:09:53;;;;;;;5.45;0.90;;;;;;;;;;5012346;28;20701;-81
2023/01/15 00:12:18;;;;;;;3.22;0.60;;;;;;;;;;5025104;28;20083;-82
2023/01/15 00:14:45;;;;;;;5.20;0.88;;;;;;;;;;5023969;28;20064;-81
2023/01/15 00:17:10;;;;;;;5.20;1.00;;;;;;;;;;5020567;28;20140;-81
2023/01/15 00:19:35;;;;;;;10.02;0.95;;;;;;;;;;5045650;28;20068;-82
2023/01/15 00:22:01;;;;;;;2.63;0.50;;;;;;;;;;5045241;28;20170;-81
2023/01/15 00:29:54;;;;;;;6.25;1.00;;;;;;;;;;5025734;28;20099;-81
2023/01/15 00:32:19;;;;;;;5.35;0.93;;;;;;;;;;5037384;28;20033;-81
2023/01/15 00:34:44;;;;;;;5.93;1.10;;;;;;;;;;5043054;28;20095;-82
2023/01/15 00:37:10;;;;;;;3.70;0.80;;;;;;;;;;5045447;28;20090;-81
2023/01/15 00:39:35;;;;;;;4.68;1.05;;;;;;;;;;5041576;28;20025;-81
2023/01/15 00:42:01;;;;;;;6.03;0.90;;;;;;;;;;5042743;28;20039;-82
2023/01/15 00:44:26;;;;;;;2.15;0.75;;;;;;;;;;5044695;28;20037;-82
2023/01/15 00:46:52;;;;;;;6.32;1.42;;;;;;;;;;5046260;28;20033;-82
2023/01/15 00:49:17;;;;;;;5.75;1.30;;;;;;;;;;5044107;28;20021;-82
2023/01/15 00:51:42;;;;;;;2.50;0.75;;;;;;;;;;5044739;28;20495;-82
2023/01/15 00:54:08;;;;;;;4.32;0.80;;;;;;;;;;5044559;28;20029;-82
2023/01/15 00:56:33;;;;;;;2.65;0.90;;;;;;;;;;5043622;28;20064;-81
2023/01/15 00:59:01;;;;;;;3.00;0.82;;;;;;;;;;5040270;28;20029;-82
2023/01/15 01:01:27;;;;;;;4.97;1.05;;;;;;;;;;5044094;28;20029;-82
2023/01/15 01:03:52;;;;;;;4.25;0.70;;;;;;;;;;5045951;28;20070;-82
2023/01/15 01:06:19;;;;;;;3.95;0.80;;;;;;;;;;5043565;28;20417;-82
2023/01/15 01:08:45;;;;;;;2.25;0.70;;;;;;;;;;5043812;28;20041;-82
2023/01/15 01:11:13;;;;;;;4.05;0.93;;;;;;;;;;5043272;28;20422;-82
2023/01/15 01:13:39;;;;;;;3.25;0.70;;;;;;;;;;5043440;28;20700;-81
2023/01/15 01:16:19;;;;;;;2.50;0.82;;;;;;;;;;5044498;28;20263;-82
2023/01/15 01:18:45;;;;;;;3.85;1.17;;;;;;;;;;5026698;28;20073;-82
2023/01/15 01:21:10;;;;;;;3.70;0.80;;;;;;;;;;5016287;28;20067;-82
2023/01/15 01:23:35;;;;;;;5.93;1.08;;;;;;;;;;5019082;28;20069;-82
2023/01/15 01:26:01;;;;;;;4.30;0.90;;;;;;;;;;5035519;28;20129;-81
2023/01/15 01:28:26;;;;;;;4.63;1.00;;;;;;;;;;5024355;28;20044;-82
2023/01/15 01:30:51;;;;;;;1.90;0.60;;;;;;;;;;5040524;28;20391;-81
2023/01/15 01:33:16;;;;;;;3.63;0.77;;;;;;;;;;5042305;28;20045;-82
2023/01/15 01:35:47;;;;;;;1.73;0.90;;;;;;;;;;5016079;28;20047;-82
2023/01/15 01:38:13;;;;;;;4.25;0.90;;;;;;;;;;5023069;28;20048;-82
2023/01/15 01:40:40;;;;;;;5.00;0.90;;;;;;;;;;5006828;28;20033;-82
2023/01/15 01:43:18;;;;;;;2.75;0.82;;;;;;;;;;5025407;28;20094;-82
2023/01/15 01:45:43;;;;;;;3.03;0.77;;;;;;;;;;5034339;28;20462;-82
2023/01/15 01:48:08;;;;;;;3.97;0.77;;;;;;;;;;5026251;28;20128;-82
2023/01/15 01:50:36;;;;;;;3.38;0.70;;;;;;;;;;5036465;28;20041;-82
2023/01/15 01:53:11;;;;;;;5.40;1.15;;;;;;;;;;5044679;28;20032;-82
2023/01/15 01:55:37;;;;;;;2.85;1.00;;;;;;;;;;5044611;28;20040;-82
2023/01/15 01:58:05;;;;;;;4.57;0.68;;;;;;;;;;5038091;28;20017;-81
2023/01/15 02:00:32;;;;;;;6.68;1.25;;;;;;;;;;5013703;28;20036;-82
2023/01/15 02:02:59;;;;;;;5.15;0.93;;;;;;;;;;5025080;28;20558;-81
2023/01/15 02:05:32;;;;;;;10.50;1.13;;;;;;;;;;5025404;28;20033;-82
2023/01/15 02:07:57;;;;;;;7.22;1.00;;;;;;;;;;5007929;28;20044;-82
2023/01/15 02:10:23;;;;;;;6.55;0.82;;;;;;;;;;5003867;28;20889;-82
2023/01/15 02:13:00;;;;;;;3.30;0.70;;;;;;;;;;5034409;28;20393;-82
2023/01/15 02:15:31;;;;;;;2.60;0.73;;;;;;;;;;5010709;28;20044;-82
2023/01/15 02:18:07;;;;;;;2.33;0.70;;;;;;;;;;5015378;28;20607;-82
2023/01/15 02:20:46;;;;;;;2.08;0.93;;;;;;;;;;5025964;28;20052;-82
2023/01/15 02:23:27;;;;;;;1.85;0.80;;;;;;;;;;5026096;28;20037;-82
2023/01/15 02:26:18;;;;;;;8.10;0.90;;;;;;;;;;5027806;28;20042;-82
2023/01/15 02:28:45;;;;;;;3.53;0.80;;;;;;;;;;5011386;28;20490;-82
2023/01/15 02:31:16;;;;;;;7.05;1.00;;;;;;;;;;5016042;28;20167;-82
2023/01/15 02:34:02;;;;;;;3.67;0.90;;;;;;;;;;5020940;28;20083;-81
2023/01/15 02:36:31;;;;;;;3.70;0.80;;;;;;;;;;4999508;28;20041;-82
2023/01/15 02:38:58;;;;;;;3.92;0.52;;;;;;;;;;5010789;28;20565;-82
2023/01/15 02:41:30;;;;;;;6.07;0.90;;;;;;;;;;5047287;28;20136;-83
2023/01/15 02:43:56;;;;;;;4.70;0.95;;;;;;;;;;5064223;28;20032;-82
2023/01/15 02:46:27;;;;;;;4.93;1.05;;;;;;;;;;5066018;28;20516;-82
2023/01/15 02:48:54;;;;;;;6.18;0.60;;;;;;;;;;5066766;28;20111;-82
2023/01/15 02:51:24;;;;;;;4.47;0.57;;;;;;;;;;5049113;28;20033;-82
2023/01/15 02:53:54;;;;;;;5.63;0.90;;;;;;;;;;5043421;28;20041;-82
2023/01/15 02:56:23;;;;;;;1.27;0.57;;;;;;;;;;5054988;28;20037;-82
2023/01/15 02:58:53;;;;;;;1.70;0.43;;;;;;;;;;5040253;28;20606;-82
2023/01/15 03:01:25;;;;;;;3.20;0.80;;;;;;;;;;5036330;28;20112;-82
2023/01/15 03:04:18;;;;;;;2.80;0.85;;;;;;;;;;5042927;28;20032;-82
2023/01/15 03:06:59;;;;;;;2.33;1.27;;;;;;;;;;5012890;28;20542;-82
2023/01/15 03:09:25;;;;;;;5.57;0.82;;;;;;;;;;5043595;28;20044;-82
2023/01/15 03:12:07;;;;;;;7.22;0.70;;;;;;;;;;5039499;28;20041;-82
2023/01/15 03:14:43;;;;;;;2.38;0.60;;;;;;;;;;5042398;28;20132;-82
2023/01/15 03:17:34;;;;;;;1.85;0.60;;;;;;;;;;5015680;28;20046;-81
2023/01/15 03:20:15;;;;;;;0.75;0.60;;;;;;;;;;4989815;28;21655;-82
2023/01/15 03:22:44;;;;;;;2.78;0.90;;;;;;;;;;4988096;28;20048;-82
2023/01/15 03:25:19;;;;;;;2.97;0.82;;;;;;;;;;5002563;28;20546;-81
2023/01/15 03:27:45;;;;;;;1.88;0.73;;;;;;;;;;4984170;28;20018;-82
2023/01/15 03:30:14;;;;;;;2.88;0.60;;;;;;;;;;4984513;28;20107;-81
2023/01/15 03:32:39;;;;;;;5.75;0.50;;;;;;;;;;4986672;28;20038;-81
2023/01/15 03:35:09;;;;;;;1.92;0.50;;;;;;;;;;5004286;28;20033;-82
2023/01/15 03:37:34;;;;;;;3.55;0.75;;;;;;;;;;4995157;28;20087;-81
2023/01/15 03:40:00;;;;;;;6.03;1.20;;;;;;;;;;5010802;28;20021;-80
2023/01/15 03:42:25;;;;;;;5.05;0.40;;;;;;;;;;5018247;28;20073;-81
2023/01/15 03:45:02;;;;;;;1.75;0.35;;;;;;;;;;5003374;28;20130;-82
2023/01/15 03:48:12;;;;;;;2.58;0.60;;;;;;;;;;5018942;28;20569;-82
2023/01/15 03:50:51;;;;;;;2.35;0.68;;;;;;;;;;4987804;28;20419;-82
2023/01/15 03:53:21;;;;;;;3.17;0.75;;;;;;;;;;4991459;28;20037;-82
2023/01/15 03:55:53;;;;;;;4.05;1.05;;;;;;;;;;4991406;28;20672;-82
2023/01/15 03:58:33;;;;;;;1.38;0.57;;;;;;;;;;4991834;28;20072;-82
2023/01/15 04:01:02;;;;;;;5.00;0.38;;;;;;;;;;5023729;28;20033;-82
2023/01/15 04:03:29;;;;;;;1.40;0.60;;;;;;;;;;4989656;28;20101;-81
2023/01/15 04:05:57;;;;;;;4.15;0.90;;;;;;;;;;5006002;28;20044;-82
2023/01/15 04:08:26;;;;;;;0.90;0.50;;;;;;;;;;5017299;28;20034;-82
2023/01/15 04:10:56;;;;;;;5.45;0.98;;;;;;;;;;4993899;28;20148;-81
2023/01/15 04:13:22;;;;;;;2.10;0.60;;;;;;;;;;5002712;28;20483;-81
2023/01/15 04:15:48;;;;;;;1.80;0.75;;;;;;;;;;5005357;28;20017;-82
2023/01/15 04:18:13;;;;;;;3.40;0.45;;;;;;;;;;5035772;28;20061;-82
2023/01/15 04:20:39;;;;;;;3.60;0.60;;;;;;;;;;5043321;28;20052;-81
2023/01/15 04:23:04;;;;;;;2.53;0.60;;;;;;;;;;5028211;28;20041;-82
2023/01/15 04:25:29;;;;;;;2.90;0.73;;;;;;;;;;5029642;28;20134;-81
2023/01/15 04:27:55;;;;;;;1.27;0.60;;;;;;;;;;5020061;28;20210;-81
2023/01/15 04:30:20;;;;;;;2.30;0.90;;;;;;;;;;5023877;28;20038;-82
2023/01/15 04:32:50;;;;;;;5.35;0.80;;;;;;;;;;5018909;28;20473;-81
2023/01/15 04:35:16;;;;;;;2.97;0.60;;;;;;;;;;5021542;28;20600;-81
2023/01/15 04:37:42;;;;;;;2.42;0.57;;;;;;;;;;5022294;28;20042;-81
2023/01/15 04:40:08;;;;;;;2.00;0.50;;;;;;;;;;5018346;28;20148;-81
2023/01/15 04:45:17;;;;;;;1.52;0.45;;;;;;;;;;5017933;28;20512;-81
2023/01/15 04:47:43;;;;;;;2.70;0.55;;;;;;;;;;5015869;28;20128;-81
2023/01/15 04:50:10;;;;;;;5.15;0.70;;;;;;;;;;5022693;28;20046;-81
2023/01/15 04:52:36;;;;;;;5.70;0.65;;;;;;;;;;5024887;28;20044;-82
2023/01/15 04:55:01;;;;;;;3.40;0.57;;;;;;;;;;5024146;28;20033;-81
2023/01/15 04:57:27;;;;;;;2.22;0.55;;;;;;;;;;5020442;28;20036;-82
2023/01/15 04:59:52;;;;;;;0.73;0.52;;;;;;;;;;5019033;28;20041;-81
2023/01/15 05:02:17;;;;;;;1.20;0.28;;;;;;;;;;5022051;28;20045;-81
2023/01/15 05:04:43;;;;;;;1.48;0.40;;;;;;;;;;5022047;28;20111;-81
2023/01/15 05:07:08;;;;;;;0.50;0.28;;;;;;;;;;5022720;28;20033;-81
2023/01/15 05:09:34;;;;;;;3.80;0.63;;;;;;;;;;5022262;28;20022;-81
2023/01/15 05:12:00;;;;;;;3.03;0.43;;;;;;;;;;5021501;28;20058;-81
2023/01/15 05:14:25;;;;;;;2.80;0.60;;;;;;;;;;5022367;28;20041;-81
2023/01/15 05:16:50;;;;;;;0.90;0.40;;;;;;;;;;5018634;28;20064;-82
2023/01/15 05:19:16;;;;;;;2.10;0.60;;;;;;;;;;5040678;28;20043;-82
2023/01/15 05:21:42;;;;;;;2.25;0.60;;;;;;;;;;5040398;28;20028;-81
2023/01/15 05:24:12;;;;;;;2.92;0.57;;;;;;;;;;5043129;28;20049;-82
2023/01/15 05:26:38;;;;;;;3.95;0.60;;;;;;;;;;5041079;28;20452;-82
2023/01/15 05:29:03;;;;;;;1.45;0.35;;;;;;;;;;5042022;28;20032;-81
2023/01/15 05:31:29;;;;;;;1.23;0.55;;;;;;;;;;5042304;28;20804;-81
2023/01/15 05:33:55;;;;;;;3.17;0.50;;;;;;;;;;5042495;28;20032;-82
2023/01/15 05:36:23;;;;;;;1.63;0.50;;;;;;;;;;5036049;28;20036;-82
2023/01/15 05:38:49;;;;;;;3.22;0.80;;;;;;;;;;5032863;28;20033;-81
2023/01/15 05:44:05;;;;;;;1.95;0.40;;;;;;;;;;5029742;28;20048;-82
2023/01/15 05:46:32;;;;;;;1.92;0.47;;;;;;;;;;5035066;28;20044;-81
2023/01/15 05:49:02;;;;;;;5.22;0.55;;;;;;;;;;5005425;28;20030;-81
2023/01/15 05:51:28;;;;;;;0.50;0.50;;;;;;;;;;5041380;28;20109;-81
2023/01/15 05:53:53;;;;;;;2.13;0.30;;;;;;;;;;5027887;28;20112;-81
2023/01/15 05:56:18;;;;;;;4.13;0.93;;;;;;;;;;5019258;28;20045;-81
2023/01/15 05:58:44;;;;;;;2.78;0.80;;;;;;;;;;5053408;28;20040;-81
2023/01/15 06:01:09;;;;;;;2.45;0.50;;;;;;;;;;5021915;28;20037;-81
2023/01/15 06:03:35;;;;;;;1.17;0.45;;;;;;;;;;5022062;28;20021;-81
2023/01/15 06:06:01;;;;;;;1.80;0.40;;;;;;;;;;5023259;28;20041;-80
2023/01/15 06:08:26;;;;;;;1.75;0.77;;;;;;;;;;5019498;28;20087;-81
2023/01/15 06:10:52;;;;;;;6.65;1.13;;;;;;;;;;5019538;28;20041;-81
2023/01/15 06:13:17;;;;;;;3.58;0.50;;;;;;;;;;5020201;28;20692;-82
2023/01/15 06:15:43;;;;;;;4.18;0.68;;;;;;;;;;5021071;28;20168;-82
2023/01/15 06:18:10;;;;;;;0.70;0.40;;;;;;;;;;5004829;28;20061;-81
2023/01/15 06:20:39;;;;;;;1.63;0.80;;;;;;;;;;4986557;28;20411;-82
2023/01/15 06:23:05;;;;;;;2.72;0.77;;;;;;;;;;5017379;28;20064;-81
2023/01/15 06:25:35;;;;;;;7.13;0.80;;;;;;;;;;5009705;28;20503;-82
2023/01/15 06:28:02;;;;;;;4.95;0.70;;;;;;;;;;4977715;28;20030;-81
2023/01/15 06:30:27;;;;;;;2.55;0.90;;;;;;;;;;5001443;28;20108;-81
2023/01/15 06:32:52;;;;;;;1.75;0.30;;;;;;;;;;5009323;28;20486;-82
2023/01/15 06:35:18;;;;;;;2.60;0.55;;;;;;;;;;5017438;28;20485;-82
2023/01/15 06:37:43;;;;;;;4.43;0.60;;;;;;;;;;5024041;28;20609;-82
2023/01/15 06:40:09;;;;;;;3.40;0.65;;;;;;;;;;5025325;28;20032;-82
2023/01/15 06:48:03;;;;;;;3.65;1.05;;;;;;;;;;5026315;28;20056;-81
2023/01/15 06:50:28;;;;;;;6.82;0.52;;;;;;;;;;5008704;28;20041;-82
2023/01/15 06:52:53;;;;;;;0.60;0.60;;;;;;;;;;5010806;28;20033;-82
2023/01/15 06:55:19;;;;;;;2.80;0.52;;;;;;;;;;5010786;28;20029;-83
2023/01/15 06:57:44;;;;;;;3.42;0.63;;;;;;;;;;5027642;28;20108;-82
2023/01/15 07:00:11;;;;;;;3.47;0.50;;;;;;;;;;5024242;28;20035;-82
2023/01/15 07:02:37;;;;;;;1.77;0.90;;;;;;;;;;5025819;28;20042;-82
2023/01/15 07:05:03;;;;;;;4.20;0.40;;;;;;;;;;4998510;28;20026;-82
2023/01/15 07:07:29;;;;;;;8.55;1.23;;;;;;;;;;4970723;28;20385;-82
2023/01/15 07:09:55;;;;;;;1.42;0.60;;;;;;;;;;4990700;28;20731;-82
2023/01/15 07:12:21;;;;;;;1.75;0.50;;;;;;;;;;4989307;28;20085;-82
2023/01/15 07:14:47;;;;;;;4.93;1.23;;;;;;;;;;4989988;28;20538;-82
2023/01/15 07:17:12;;;;;;;6.43;0.63;;;;;;;;;;4998136;28;20046;-82
2023/01/15 07:19:38;;;;;;;5.13;0.73;;;;;;;;;;5014289;28;20116;-82
2023/01/15 07:22:04;;;;;;;6.95;1.25;;;;;;;;;;5011980;28;20036;-83
2023/01/15 07:24:30;;;;;;;8.38;0.88;;;;;;;;;;4982611;28;20034;-83
2023/01/15 07:26:55;;;;;;;4.07;0.77;;;;;;;;;;4973391;28;20638;-82
2023/01/15 07:29:22;;;;;;;5.60;0.73;;;;;;;;;;5002620;28;20696;-83
2023/01/15 07:31:47;;;;;;;2.63;0.70;;;;;;;;;;4983315;28;20137;-83
2023/01/15 07:34:13;;;;;;;8.30;0.60;;;;;;;;;;4995169;28;20113;-83
2023/01/15 07:36:38;;;;;;;6.00;0.88;;;;;;;;;;5008509;28;20053;-83
2023/01/15 07:39:04;;;;;;;1.58;0.45;;;;;;;;;;5011353;28;20038;-82
2023/01/15 07:49:45;;;;;;;3.53;0.52;;;;;;;;;;5001466;28;20040;-82
2023/01/15 07:52:15;;;;;;;3.05;0.73;;;;;;;;;;4989618;28;20108;-82
2023/01/15 07:54:40;;;;;;;2.03;0.45;;;;;;;;;;5046539;28;20025;-81
2023/01/15 07:57:06;;;;;;;3.22;0.55;;;;;;;;;;5004062;28;20141;-82
2023/01/15 07:59:31;;;;;;;1.05;0.70;;;;;;;;;;5003530;28;20038;-82
2023/01/15 08:01:56;;;;;;;8.75;0.82;;;;;;;;;;5007586;28;20092;-82
2023/01/15 08:04:22;;;;;;;1.08;0.55;;;;;;;;;;5002019;28;20108;-82
2023/01/15 08:06:47;;;;;;;3.25;0.60;;;;;;;;;;4985786;28;20099;-82
2023/01/15 08:09:12;;;;;;;2.47;0.52;;;;;;;;;;4984102;28;20044;-82
2023/01/15 08:17:05;;;;;;;4.00;0.90;;;;;;;;;;5001298;28;20129;-80
2023/01/15 08:19:31;;;;;;;1.63;0.88;;;;;;;;;;5014625;28;20120;-80
2023/01/15 08:21:57;;;;;;;0.65;0.45;;;;;;;;;;5016060;28;20402;-81
2023/01/15 08:24:23;;;;;;;5.32;0.95;;;;;;;;;;5007516;28;20503;-80
2023/01/15 08:26:49;;;;;;;4.85;0.60;;;;;;;;;;5012025;28;20034;-81
2023/01/15 08:29:14;;;;;;;5.78;0.60;;;;;;;;;;5025926;28;20040;-82
2023/01/15 08:31:40;;;;;;;2.45;0.68;;;;;;;;;;5034789;28;20040;-84
2023/01/15 08:34:06;;;;;;;1.90;0.45;;;;;;;;;;5038178;28;20032;-83
2023/01/15 08:36:32;;;;;;;7.05;0.82;;;;;;;;;;5019713;28;20025;-83
2023/01/15 08:38:57;;;;;;;1.35;0.43;;;;;;;;;;5017532;28;20037;-83
2023/01/15 08:41:22;;;;;;;2.88;0.50;;;;;;;;;;5016637;28;20519;-81
2023/01/15 08:43:48;;;;;;;1.85;0.50;;;;;;;;;;5025326;28;20041;-83
2023/01/15 08:46:13;;;;;;;1.48;0.47;;;;;;;;;;5029692;28;20021;-83
2023/01/15 08:48:38;;;;;;;4.53;0.82;;;;;;;;;;5028602;28;20014;-84
2023/01/15 08:51:05;;;;;;;5.50;1.00;;;;;;;;;;5030468;28;20033;-84
2023/01/15 08:53:30;;;;;;;5.40;0.60;;;;;;;;;;5030788;28;20108;-83
2023/01/15 08:55:56;;;;;;;2.90;0.63;;;;;;;;;;5029611;28;20046;-83
2023/01/15 08:58:21;;;;;;;1.67;0.40;;;;;;;;;;5022838;28;20052;-83
2023/01/15 09:00:47;;;;;;;3.20;0.90;;;;;;;;;;5022092;28;20083;-83
2023/01/15 09:03:13;;;;;;;3.45;0.80;;;;;;;;;;5022773;28;20034;-83
2023/01/15 09:05:39;;;;;;;4.40;0.60;;;;;;;;;;5016706;28;20053;-81
2023/01/15 09:08:05;;;;;;;4.03;0.60;;;;;;;;;;5020934;28;20057;-84
2023/01/15 09:10:31;;;;;;;1.60;0.50;;;;;;;;;;5015608;28;20042;-84
2023/01/15 09:13:01;;;;;;;4.55;0.70;;;;;;;;;;5010300;28;20247;-83
2023/01/15 09:15:32;;;;;;;3.42;0.70;;;;;;;;;;5026221;28;20052;-83
2023/01/15 09:17:58;;;;;;;0.98;0.80;;;;;;;;;;5046078;28;20065;-83
2023/01/15 09:20:24;;;;;;;4.13;0.80;;;;;;;;;;5046542;28;20456;-83
2023/01/15 09:22:50;;;;;;;10.55;1.27;;;;;;;;;;5046248;28;20044;-83
2023/01/15 09:25:18;;;;;;;2.67;0.47;;;;;;;;;;5040300;28;20079;-83
2023/01/15 09:27:43;;;;;;;2.80;0.80;;;;;;;;;;5038535;28;20095;-83
2023/01/15 09:30:29;;;;;;;5.68;1.08;;;;;;;;;;5032333;28;20425;-84
2023/01/15 09:32:54;;;;;;;4.80;1.30;;;;;;;;;;5024778;28;20065;-84
2023/01/15 09:35:21;;;;;;;4.80;1.20;;;;;;;;;;5017266;28;20061;-83
2023/01/15 09:37:51;;;;;;;2.65;0.60;;;;;;;;;;5014876;28;20033;-83
2023/01/15 09:40:51;;;;;;;3.08;0.93;;;;;;;;;;5014395;28;20029;-82
2023/01/15 09:43:44;;;;;;;2.97;0.60;;;;;;;;;;5015956;28;20052;-83
2023/01/15 09:46:22;;;;;;;3.05;0.98;;;;;;;;;;5019268;28;20562;-83
2023/01/15 09:49:03;;;;;;;2.58;0.80;;;;;;;;;;5017544;28;20464;-83
2023/01/15 09:52:02;;;;;;;5.43;0.88;;;;;;;;;;5039478;28;20408;-83
2023/01/15 09:54:35;;;;;;;1.05;0.73;;;;;;;;;;5067845;28;20051;-83
2023/01/15 09:57:01;;;;;;;4.07;1.00;;;;;;;;;;5062529;28;20123;-83
2023/01/15 09:59:39;;;;;;;11.68;0.80;;;;;;;;;;5041056;28;20096;-82
2023/01/15 10:02:28;;;;;;;1.88;0.95;;;;;;;;;;5024879;28;20575;-83
2023/01/15 10:05:01;;;;;;;4.63;1.10;;;;;;;;;;5022426;28;20125;-81
2023/01/15 10:07:37;;;;;;;4.15;0.95;;;;;;;;;;5014684;28;20124;-81
2023/01/15 10:10:10;;;;;;;4.65;1.13;;;;;;;;;;5008916;28;20035;-82
2023/01/15 10:12:38;;;;;;;2.73;0.70;;;;;;;;;;5020637;28;20023;-81
2023/01/15 10:15:16;;;;;;;4.30;0.93;;;;;;;;;;5020986;28;20273;-81
2023/01/15 10:17:42;;;;;;;1.50;0.70;;;;;;;;;;5021797;28;20422;-81
2023/01/15 10:20:20;;;;;;;4.10;1.08;;;;;;;;;;5022179;28;20050;-82
2023/01/15 10:23:04;;;;;;;1.75;1.20;;;;;;;;;;5023685;28;20049;-81
2023/01/15 10:25:36;;;;;;;2.05;0.85;;;;;;;;;;5014701;28;20525;-82
2023/01/15 10:28:15;;;;;;;1.43;0.90;;;;;;;;;;5020516;28;20116;-82
2023/01/15 10:30:46;;;;;;;4.53;1.13;;;;;;;;;;5016454;28;20049;-82
2023/01/15 10:33:23;;;;;;;4.32;1.33;;;;;;;;;;5014469;28;20098;-81
2023/01/15 10:36:01;;;;;;;1.55;0.60;;;;;;;;;;5027375;28;20499;-82
2023/01/15 10:38:46;;;;;;;4.28;0.85;;;;;;;;;;5026032;28;20025;-81
2023/01/15 10:41:24;;;;;;;1.40;0.90;;;;;;;;;;5027138;28;20033;-82
2023/01/15 10:44:12;;;;;;;2.75;1.25;;;;;;;;;;5022588;28;20483;-81
2023/01/15 10:46:39;;;;;;;4.38;0.73;;;;;;;;;;5018825;28;20033;-82
2023/01/15 10:49:14;;;;;;;1.80;0.80;;;;;;;;;;5023498;28;20092;-83
2023/01/15 10:51:46;;;;;;;5.28;0.90;;;;;;;;;;5027493;28;20599;-83
2023/01/15 10:54:24;;;;;;;6.72;2.15;;;;;;;;;;5031614;28;20037;-84
2023/01/15 10:57:02;;;;;;;0.70;0.55;;;;;;;;;;5028270;28;20156;-83
2023/01/15 10:59:36;;;;;;;8.15;0.98;;;;;;;;;;5028740;28;20124;-83
2023/01/15 11:02:12;;;;;;;7.00;0.82;;;;;;;;;;5033333;28;20104;-84
2023/01/15 11:04:37;;;;;;;5.97;0.90;;;;;;;;;;5031691;28;20029;-84
2023/01/15 11:07:04;;;;;;;7.60;1.23;;;;;;;;;;5030944;28;20021;-83
2023/01/15 11:09:34;;;;;;;0.73;0.63;;;;;;;;;;5020774;28;20033;-82
2023/01/15 11:20:33;;;;;;;5.88;1.42;;;;;;;;;;5032775;28;20533;-83
2023/01/15 11:23:11;;;;;;;5.03;1.70;;;;;;;;;;5023351;28;20033;-82
2023/01/15 11:25:43;;;;;;;4.25;0.90;;;;;;;;;;5030815;28;20060;-83
2023/01/15 11:28:11;;;;;;;7.85;1.17;;;;;;;;;;5028618;28;20521;-83
2023/01/15 11:30:37;;;;;;;3.78;0.82;;;;;;;;;;5019573;28;20033;-83
2023/01/15 11:33:05;;;;;;;6.85;1.30;;;;;;;;;;5021642;28;20052;-84
2023/01/15 11:35:32;;;;;;;1.85;0.60;;;;;;;;;;5024161;28;20110;-82
2023/01/15 11:38:26;;;;;;;4.25;0.73;;;;;;;;;;5027816;28;20033;-84
2023/01/15 11:41:00;;;;;;;7.15;0.80;;;;;;;;;;5029928;28;20034;-84
2023/01/15 11:51:56;;;;;;;4.43;1.00;;;;;;;;;;5030542;28;20037;-83
2023/01/15 11:54:23;;;;;;;3.08;1.00;;;;;;;;;;5029690;28;20018;-83
2023/01/15 11:56:49;;;;;;;6.65;0.93;;;;;;;;;;5018032;28;20029;-84
2023/01/15 11:59:18;;;;;;;5.03;1.85;;;;;;;;;;5026283;28;20033;-83
2023/01/15 12:01:59;;;;;;;2.58;0.95;;;;;;;;;;5029916;28;20068;-83
2023/01/15 12:04:31;;;;;;;3.70;0.65;;;;;;;;;;5019128;28;20079;-84
2023/01/15 12:06:58;;;;;;;0.82;0.60;;;;;;;;;;5024815;28;20112;-83
2023/01/15 12:09:41;;;;;;;1.95;0.90;;;;;;;;;;5029563;28;20533;-83
2023/01/15 12:12:22;;;;;;;5.03;0.70;;;;;;;;;;5019351;28;20101;-84
2023/01/15 12:15:06;;;;;;;2.28;0.80;;;;;;;;;;5013631;28;20033;-82
2023/01/15 12:18:06;;;;;;;2.58;0.75;;;;;;;;;;5024466;28;20044;-83
2023/01/15 12:20:56;;;;;;;2.67;0.90;;;;;;;;;;5008279;28;20061;-82
2023/01/15 12:23:33;;;;;;;3.05;0.98;;;;;;;;;;5017563;28;20407;-83
2023/01/15 12:26:16;;;;;;;3.33;1.00;;;;;;;;;;5025952;28;20510;-85
2023/01/15 12:28:56;;;;;;;2.78;0.82;;;;;;;;;;5013575;28;20033;-83
2023/01/15 12:31:28;;;;;;;2.85;0.80;;;;;;;;;;5025943;28;20506;-85
2023/01/15 12:34:05;;;;;;;2.58;0.82;;;;;;;;;;5026166;28;20310;-84
2023/01/15 12:36:38;;;;;;;2.00;0.90;;;;;;;;;;5024191;28;20061;-83
2023/01/15 12:39:12;;;;;;;3.80;1.30;;;;;;;;;;5015079;28;20022;-83
2023/01/15 12:45:06;;;;;;;2.65;0.80;;;;;;;;;;5024413;28;20103;-84
2023/01/15 12:47:39;;;;;;;0.60;0.60;;;;;;;;;;5005098;28;20038;-84
2023/01/15 12:50:21;;;;;;;3.22;1.08;;;;;;;;;;5005785;28;20034;-84
2023/01/15 12:52:51;;;;;;;2.08;0.80;;;;;;;;;;5013249;28;20033;-83
2023/01/15 12:55:23;;;;;;;1.40;0.93;;;;;;;;;;5014535;28;20029;-84
2023/01/15 12:57:53;;;;;;;3.40;0.80;;;;;;;;;;5022272;28;20171;-84
2023/01/15 13:00:27;;;;;;;12.32;1.60;;;;;;;;;;5021334;28;20558;-84
2023/01/15 13:03:07;;;;;;;1.52;0.70;;;;;;;;;;5020997;28;20442;-85
2023/01/15 13:05:46;;;;;;;2.15;0.77;;;;;;;;;;5019898;28;20148;-83
2023/01/15 13:08:21;;;;;;;1.92;0.50;;;;;;;;;;5015728;28;20030;-83
2023/01/15 13:10:49;;;;;;;1.90;0.50;;;;;;;;;;5022865;28;20029;-83
2023/01/15 13:13:19;;;;;;;2.22;0.60;;;;;;;;;;5015610;28;20045;-84
2023/01/15 13:16:22;;;;;;;3.78;0.65;;;;;;;;;;5013195;28;20037;-84
2023/01/15 13:19:00;;;;;;;1.88;0.85;;;;;;;;;;5040722;28;20052;-84
2023/01/15 13:21:29;;;;;;;2.60;1.02;;;;;;;;;;5026612;28;20087;-84
2023/01/15 13:24:01;;;;;;;0.90;0.50;;;;;;;;;;5016031;28;20586;-84
2023/01/15 13:27:00;;;;;;;4.40;1.10;;;;;;;;;;5009274;28;20049;-84
2023/01/15 13:29:25;;;;;;;4.03;0.77;;;;;;;;;;5041445;28;20036;-81
2023/01/15 13:32:29;;;;;;;1.20;0.60;;;;;;;;;;5039954;28;20030;-84
2023/01/15 13:35:00;;;;;;;1.67;1.00;;;;;;;;;;5018498;28;20084;-84
2023/01/15 13:37:33;;;;;;;3.55;1.10;;;;;;;;;;5038403;28;20543;-82
2023/01/15 13:40:12;;;;;;;3.60;0.98;;;;;;;;;;5037859;28;20056;-83
2023/01/15 13:42:39;;;;;;;0.88;0.60;;;;;;;;;;5032971;28;20122;-83
2023/01/15 13:45:14;;;;;;;2.83;0.80;;;;;;;;;;5029690;28;20025;-83
2023/01/15 13:47:48;;;;;;;3.00;1.45;;;;;;;;;;5018833;28;20041;-84
2023/01/15 13:50:24;;;;;;;5.10;0.95;;;;;;;;;;5022108;28;20035;-84
2023/01/15 13:53:00;;;;;;;2.47;0.95;;;;;;;;;;5019097;28;20104;-83
2023/01/15 13:55:31;;;;;;;3.60;1.00;;;;;;;;;;5019626;28;20028;-84
2023/01/15 13:57:56;;;;;;;2.47;1.52;;;;;;;;;;5020140;28;20060;-84
2023/01/15 14:00:35;;;;;;;4.43;1.42;;;;;;;;;;4998400;28;20045;-84
2023/01/15 14:03:26;;;;;;;0.93;0.60;;;;;;;;;;5009387;28;20080;-84
2023/01/15 14:05:56;;;;;;;3.20;0.70;;;;;;;;;;5003000;28;20038;-83
2023/01/15 14:08:26;;;;;;;2.30;0.77;;;;;;;;;;5014819;28;20021;-84
2023/01/15 14:10:54;;;;;;;2.28;0.80;;;;;;;;;;5012828;28;20022;-83
2023/01/15 14:13:44;;;;;;;3.25;0.80;;;;;;;;;;5013768;28;20515;-83
2023/01/15 14:16:42;;;;;;;2.22;0.80;;;;;;;;;;5017723;28;20041;-83
2023/01/15 14:19:23;;;;;;;4.05;1.30;;;;;;;;;;5018776;28;20085;-83
2023/01/15 14:22:21;;;;;;;2.38;1.08;;;;;;;;;;5014225;28;20062;-83
2023/01/15 14:25:08;;;;;;;1.88;0.70;;;;;;;;;;4990310;28;20046;-82
2023/01/15 14:27:36;;;;;;;1.85;1.00;;;;;;;;;;5039463;28;20049;-82
2023/01/15 14:30:01;;;;;;;1.65;0.70;;;;;;;;;;5045115;28;20033;-83
2023/01/15 14:32:39;;;;;;;0.85;0.73;;;;;;;;;;5039418;28;20044;-82
2023/01/15 14:35:15;;;;;;;3.03;0.60;;;;;;;;;;5034846;28;20033;-82
2023/01/15 14:37:50;;;;;;;2.28;0.70;;;;;;;;;;5032418;28;20055;-82
2023/01/15 14:40:19;;;;;;;1.48;0.90;;;;;;;;;;5034224;28;20090;-82
2023/01/15 14:43:06;;;;;;;2.75;1.20;;;;;;;;;;5017508;28;20602;-82
2023/01/15 14:45:40;;;;;;;1.30;1.00;;;;;;;;;;5014879;28;20458;-82
2023/01/15 14:48:16;;;;;;;3.33;0.90;;;;;;;;;;5018518;28;20095;-82
2023/01/15 14:50:43;;;;;;;1.15;0.65;;;;;;;;;;5023622;28;20033;-83
2023/01/15 14:53:14;;;;;;;5.55;1.08;;;;;;;;;;5026129;28;20059;-83
2023/01/15 14:55:45;;;;;;;2.15;1.13;;;;;;;;;;5020616;28;20539;-83
2023/01/15 14:58:26;;;;;;;3.17;0.98;;;;;;;;;;5036408;28;20057;-83
2023/01/15 15:00:52;;;;;;;5.90;1.40;;;;;;;;;;5037314;28;20036;-83
2023/01/15 15:03:25;;;;;;;1.83;1.00;;;;;;;;;;5034477;28;20076;-83
2023/01/15 15:05:50;;;;;;;4.20;0.95;;;;;;;;;;5037193;28;20943;-83
2023/01/15 15:08:18;;;;;;;3.90;1.42;;;;;;;;;;5039749;28;20435;-83
2023/01/15 15:10:49;;;;;;;2.38;1.15;;;;;;;;;;5040243;28;20462;-84
2023/01/15 15:13:36;;;;;;;4.72;1.10;;;;;;;;;;5019585;28;20033;-83
2023/01/15 15:16:25;;;;;;;4.65;0.95;;;;;;;;;;5018268;28;20030;-83
2023/01/15 15:19:04;;;;;;;3.30;1.20;;;;;;;;;;5003053;28;20466;-83
2023/01/15 15:21:37;;;;;;;3.28;1.23;;;;;;;;;;5005470;28;20121;-83
2023/01/15 15:24:05;;;;;;;1.52;1.27;;;;;;;;;;4996136;28;20046;-82
2023/01/15 15:26:34;;;;;;;3.72;1.42;;;;;;;;;;4989290;28;20058;-84
2023/01/15 15:29:14;;;;;;;2.17;0.93;;;;;;;;;;4982249;28;20540;-83
2023/01/15 15:31:52;;;;;;;1.83;0.88;;;;;;;;;;5023837;28;20551;-83
2023/01/15 15:34:34;;;;;;;1.38;0.50;;;;;;;;;;5026007;28;20042;-83
2023/01/15 15:37:03;;;;;;;1.77;0.93;;;;;;;;;;5029031;28;20043;-84
2023/01/15 15:39:44;;;;;;;1.85;0.98;;;;;;;;;;5025917;28;20408;-83
2023/01/15 15:50:41;;;;;;;2.97;1.10;;;;;;;;;;5013686;28;20470;-82
2023/01/15 15:53:16;;;;;;;2.70;1.00;;;;;;;;;;5008350;28;20479;-83
2023/01/15 15:55:43;;;;;;;4.72;1.40;;;;;;;;;;5008629;28;20029;-83
2023/01/15 15:58:35;;;;;;;4.22;1.25;;;;;;;;;;5008636;28;20055;-82
2023/01/15 16:01:01;;;;;;;8.98;1.60;;;;;;;;;;5021096;28;20040;-83
2023/01/15 16:03:29;;;;;;;7.45;1.50;;;;;;;;;;5021886;28;20029;-81